createdAt,value
2023-05-04T03:02:57.048Z,5.70
2023-05-04T03:05:24.385Z,4.90
2023-05-04T03:07:51.623Z,4.90
2023-05-04T03:10:18.768Z,4.90
2023-05-04T03:12:46.326Z,4.90
2023-05-04T03:15:13.567Z,4.90
2023-05-04T03:17:41.101Z,4.90
2023-05-04T03:20:09.578Z,4.90
2023-05-04T03:22:37.092Z,4.90
2023-05-04T03:25:04.932Z,4.80
2023-05-04T03:27:32.534Z,4.80
2023-05-04T03:29:59.747Z,4.60
2023-05-04T03:32:27.086Z,4.50
2023-05-04T03:34:54.294Z,4.40
2023-05-04T03:37:21.429Z,4.40
2023-05-04T03:39:48.609Z,4.30
2023-05-04T03:44:48.462Z,7.60
2023-05-04T03:47:15.692Z,4.20
2023-05-04T03:49:42.833Z,4.20
2023-05-04T03:52:10.003Z,4.30
2023-05-04T03:54:37.230Z,4.40
2023-05-04T03:57:04.623Z,4.40
2023-05-04T03:59:31.880Z,4.40
2023-05-04T04:01:59.872Z,4.40
2023-05-04T04:04:27.400Z,4.50
2023-05-04T04:06:54.605Z,4.50
2023-05-04T04:09:21.748Z,4.50
2023-05-04T04:11:48.914Z,4.50
2023-05-04T04:14:16.076Z,4.50
2023-05-04T04:16:43.344Z,4.50
2023-05-04T04:19:10.657Z,4.60
2023-05-04T04:21:37.849Z,4.60
2023-05-04T04:24:05.422Z,4.70
2023-05-04T04:26:32.570Z,4.70
2023-05-04T04:28:59.781Z,4.70
2023-05-04T04:31:27.064Z,4.60
2023-05-04T04:33:54.293Z,4.70
2023-05-04T04:36:21.615Z,4.80
2023-05-04T04:38:49.654Z,4.70
2023-05-04T04:41:17.415Z,4.70
2023-05-04T04:43:44.604Z,5.00
2023-05-04T04:46:11.802Z,5.20
2023-05-04T04:48:38.971Z,5.20
2023-05-04T04:51:11.187Z,5.40
2023-05-04T04:53:39.151Z,5.60
2023-05-04T04:56:09.805Z,5.70
2023-05-04T04:58:37.169Z,5.90
2023-05-04T05:01:05.117Z,6.00
2023-05-04T05:03:32.634Z,6.10
2023-05-04T05:06:01.774Z,6.30
2023-05-04T05:08:29.209Z,6.30
2023-05-04T05:10:56.518Z,6.40
2023-05-04T05:13:23.708Z,6.50
2023-05-04T05:15:50.946Z,6.70
2023-05-04T05:18:18.137Z,6.70
2023-05-04T05:20:45.362Z,6.70
2023-05-04T05:23:12.977Z,6.50
2023-05-04T05:25:40.276Z,7.40
2023-05-04T05:28:07.525Z,7.80
2023-05-04T05:30:34.729Z,8.20
2023-05-04T05:33:03.776Z,8.10
2023-05-04T05:35:31.251Z,8.50
2023-05-04T05:37:58.723Z,8.60
2023-05-04T05:40:25.906Z,9.20
2023-05-04T05:42:53.158Z,10.20
2023-05-04T05:45:20.509Z,11.10
2023-05-04T05:47:47.724Z,11.20
2023-05-04T05:50:15.650Z,11.70
2023-05-04T05:52:42.865Z,11.80
2023-05-04T05:55:10.312Z,12.00
2023-05-04T05:57:37.565Z,12.10
2023-05-04T06:00:06.074Z,12.50
2023-05-04T06:02:33.558Z,13.20
2023-05-04T06:05:01.061Z,14.90
2023-05-04T06:07:28.251Z,14.90
2023-05-04T06:09:56.525Z,15.70
2023-05-04T06:12:23.686Z,15.70
2023-05-04T06:14:50.888Z,15.40
2023-05-04T06:17:19.126Z,14.80
2023-05-04T06:19:48.082Z,15.40
2023-05-04T06:22:16.777Z,16.20
2023-05-04T06:24:44.030Z,16.80
2023-05-04T06:27:11.398Z,16.60
2023-05-04T06:29:40.327Z,16.40
2023-05-04T06:32:10.032Z,17.20
2023-05-04T06:34:37.397Z,17.40
2023-05-04T06:37:04.628Z,18.00
2023-05-04T06:39:31.898Z,18.50
2023-05-04T06:41:59.577Z,19.10
2023-05-04T06:44:26.841Z,19.60
2023-05-04T06:46:54.335Z,19.80
2023-05-04T06:49:21.478Z,20.00
2023-05-04T06:51:48.658Z,20.20
2023-05-04T06:54:15.879Z,20.60
2023-05-04T06:56:43.298Z,20.60
2023-05-04T06:59:10.605Z,20.90
2023-05-04T07:01:37.860Z,21.00
2023-05-04T07:04:05.388Z,21.20
2023-05-04T07:06:32.771Z,21.40
2023-05-04T07:09:00.103Z,21.60
2023-05-04T07:11:28.663Z,22.00
2023-05-04T07:13:56.046Z,22.20
2023-05-04T07:16:23.312Z,21.20
2023-05-04T07:18:50.794Z,21.70
2023-05-04T07:21:27.719Z,22.00
2023-05-04T07:23:56.174Z,22.40
2023-05-04T07:26:23.508Z,22.40
2023-05-04T07:28:50.819Z,22.80
2023-05-04T07:31:18.049Z,23.10
2023-05-04T07:33:45.751Z,23.60
2023-05-04T07:36:13.000Z,23.40
2023-05-04T07:38:40.346Z,23.00
2023-05-04T07:41:07.530Z,22.30
2023-05-04T07:43:34.643Z,22.60
2023-05-04T07:46:01.872Z,22.70
2023-05-04T07:48:29.105Z,23.10
2023-05-04T07:50:56.350Z,23.60
2023-05-04T07:53:25.500Z,23.90
2023-05-04T07:55:57.519Z,24.30
2023-05-04T07:58:24.674Z,23.90
2023-05-04T08:00:52.044Z,24.10
2023-05-04T08:03:19.365Z,24.40
2023-05-04T08:05:46.870Z,23.40
2023-05-04T08:08:14.052Z,23.70
2023-05-04T08:10:41.333Z,24.60
2023-05-04T08:13:08.531Z,25.10
2023-05-04T08:15:35.730Z,25.70
2023-05-04T08:18:02.940Z,25.50
2023-05-04T08:20:30.237Z,25.70
2023-05-04T08:22:57.984Z,25.80
2023-05-04T08:25:25.385Z,26.60
2023-05-04T08:27:53.373Z,26.80
2023-05-04T08:30:20.628Z,27.00
2023-05-04T08:32:51.083Z,26.50
2023-05-04T08:35:18.341Z,26.20
2023-05-04T08:37:45.558Z,26.40
2023-05-04T08:40:13.191Z,26.70
2023-05-04T08:42:40.413Z,26.50
2023-05-04T08:45:08.324Z,26.30
2023-05-04T08:47:36.071Z,26.30
2023-05-04T08:50:04.524Z,26.20
2023-05-04T08:52:32.173Z,26.20
2023-05-04T08:54:59.604Z,26.10
2023-05-04T08:57:27.518Z,26.10
2023-05-04T08:59:55.592Z,25.70
2023-05-04T09:02:24.537Z,25.50
2023-05-04T09:04:53.147Z,25.00
2023-05-04T09:07:21.596Z,24.00
2023-05-04T09:09:50.961Z,23.20
2023-05-04T09:12:19.085Z,22.70
2023-05-04T09:14:46.656Z,22.00
2023-05-04T09:17:17.718Z,21.90
2023-05-04T09:19:45.062Z,21.80
2023-05-04T09:22:19.359Z,21.30
2023-05-04T09:24:46.883Z,20.70
2023-05-04T09:27:18.579Z,20.40
2023-05-04T09:29:54.204Z,20.20
2023-05-04T09:32:21.620Z,20.50
2023-05-04T09:34:49.659Z,20.40
2023-05-04T09:37:17.299Z,20.50
2023-05-04T09:39:55.461Z,20.10
2023-05-04T09:42:24.017Z,19.90
2023-05-04T09:45:05.309Z,19.50
2023-05-04T09:47:40.200Z,19.50
2023-05-04T09:50:25.547Z,19.60
2023-05-04T09:52:54.651Z,19.80
2023-05-04T09:55:21.966Z,20.10
2023-05-04T09:57:50.868Z,20.20
2023-05-04T10:00:19.388Z,20.60
2023-05-04T10:02:47.999Z,20.40
2023-05-04T10:05:17.423Z,20.50
2023-05-04T10:07:45.267Z,20.50
2023-05-04T10:10:14.477Z,20.60
2023-05-04T10:12:42.761Z,20.40
2023-05-04T10:15:12.496Z,20.30
2023-05-04T10:18:21.092Z,20.30
2023-05-04T10:21:18.390Z,20.40
2023-05-04T10:23:48.423Z,20.30
2023-05-04T10:26:26.801Z,20.10
2023-05-04T10:29:23.161Z,20.10
2023-05-04T10:31:51.795Z,20.20
2023-05-04T10:34:34.733Z,20.20
2023-05-04T10:37:04.159Z,20.40
2023-05-04T10:39:33.219Z,20.50
2023-05-04T10:42:07.912Z,20.40
2023-05-04T10:44:56.202Z,20.30
2023-05-04T10:47:33.109Z,20.30
2023-05-04T10:50:08.381Z,20.20
2023-05-04T10:52:53.880Z,20.20
2023-05-04T10:55:22.563Z,20.20
2023-05-04T10:57:57.236Z,20.20
2023-05-04T11:00:38.779Z,20.20
2023-05-04T11:03:07.620Z,20.20
2023-05-04T11:05:52.697Z,20.40
2023-05-04T11:08:24.767Z,20.40
2023-05-04T11:11:07.874Z,20.30
2023-05-04T11:13:40.681Z,20.40
2023-05-04T11:16:08.155Z,20.30
2023-05-04T11:18:37.370Z,20.30
2023-05-04T11:21:04.792Z,20.30
2023-05-04T11:23:32.247Z,20.50
2023-05-04T11:26:05.764Z,20.30
2023-05-04T11:28:38.206Z,20.30
2023-05-04T11:31:15.439Z,20.40
2023-05-04T11:33:50.314Z,20.30
2023-05-04T11:36:18.673Z,20.40
2023-05-04T11:38:45.914Z,20.40
2023-05-04T11:41:13.329Z,20.30
2023-05-04T11:43:42.435Z,20.40
2023-05-04T11:46:10.494Z,20.60
2023-05-04T11:48:38.635Z,20.70
2023-05-04T11:51:06.671Z,20.80
2023-05-04T11:53:39.210Z,20.80
2023-05-04T11:56:08.922Z,20.70
2023-05-04T11:58:36.588Z,20.70
2023-05-04T12:01:04.217Z,20.70
2023-05-04T12:03:51.233Z,20.90
2023-05-04T12:06:31.660Z,20.90
2023-05-04T12:09:03.594Z,21.00
2023-05-04T12:11:30.852Z,21.00
2023-05-04T12:14:11.924Z,21.20
2023-05-04T12:16:39.810Z,21.10
2023-05-04T12:19:12.768Z,21.20
2023-05-04T12:21:54.035Z,21.20
2023-05-04T12:24:22.799Z,21.20
2023-05-04T12:26:50.765Z,21.20
2023-05-04T12:29:18.219Z,21.40
2023-05-04T12:31:45.440Z,21.50
2023-05-04T12:34:12.633Z,21.50
2023-05-04T12:36:39.895Z,21.60
2023-05-04T12:39:07.279Z,21.50
2023-05-04T12:41:34.520Z,21.60
2023-05-04T12:44:01.751Z,21.70
2023-05-04T12:46:29.024Z,21.80
2023-05-04T12:48:57.193Z,21.80
2023-05-04T12:51:24.460Z,22.00
2023-05-04T12:53:51.686Z,21.80
2023-05-04T12:56:18.857Z,21.80
2023-05-04T12:58:46.018Z,21.90
2023-05-04T13:01:13.310Z,21.90
2023-05-04T13:03:40.647Z,22.00
2023-05-04T13:06:08.191Z,22.30
2023-05-04T13:08:35.522Z,22.30
2023-05-04T13:11:03.122Z,22.30
2023-05-04T13:13:30.739Z,22.40
2023-05-04T13:15:58.046Z,22.60
2023-05-04T13:18:28.256Z,22.50
2023-05-04T13:20:56.302Z,22.70
2023-05-04T13:23:24.068Z,22.80
2023-05-04T13:25:51.436Z,22.80
2023-05-04T13:28:18.945Z,22.80
2023-05-04T13:30:46.428Z,22.70
2023-05-04T13:33:24.918Z,22.70
2023-05-04T13:35:58.121Z,22.80
2023-05-04T13:38:27.240Z,22.90
2023-05-04T13:40:55.057Z,23.00
2023-05-04T13:43:22.433Z,23.00
2023-05-04T13:45:49.899Z,23.00
2023-05-04T13:48:17.078Z,23.10
2023-05-04T13:50:44.284Z,23.00
2023-05-04T13:53:11.408Z,23.00
2023-05-04T13:55:38.795Z,22.90
2023-05-04T13:58:06.042Z,22.90
2023-05-04T14:00:33.567Z,22.80
2023-05-04T14:03:00.837Z,22.90
2023-05-04T14:05:28.177Z,23.00
2023-05-04T14:07:55.362Z,23.10
2023-05-04T14:10:22.592Z,23.20
2023-05-04T14:12:49.900Z,23.20
2023-05-04T14:15:17.337Z,22.90
2023-05-04T14:17:44.530Z,22.90
2023-05-04T14:20:12.275Z,23.00
2023-05-04T14:22:41.258Z,23.10
2023-05-04T14:25:09.103Z,23.00
2023-05-04T14:27:36.530Z,23.00
2023-05-04T14:30:05.021Z,23.30
2023-05-04T14:32:32.252Z,23.30
2023-05-04T14:35:11.035Z,23.40
2023-05-04T14:37:40.049Z,23.30
2023-05-04T14:40:09.499Z,23.40
2023-05-04T14:42:37.339Z,23.30
2023-05-04T14:45:06.266Z,23.50
2023-05-04T14:47:34.026Z,23.50
2023-05-04T14:50:02.285Z,23.60
2023-05-04T14:52:29.545Z,23.80
2023-05-04T14:54:56.723Z,23.70
2023-05-04T14:57:24.020Z,23.60
2023-05-04T14:59:51.165Z,23.60
2023-05-04T15:02:19.186Z,23.60
2023-05-04T15:04:47.142Z,23.70
2023-05-04T15:07:16.178Z,23.80
2023-05-04T15:09:43.487Z,23.80
2023-05-04T15:12:10.831Z,23.80
2023-05-04T15:14:38.118Z,23.60
2023-05-04T15:17:05.479Z,23.30
2023-05-04T15:19:32.685Z,23.20
2023-05-04T15:21:59.831Z,23.30
2023-05-04T15:24:27.073Z,23.30
2023-05-04T15:26:54.302Z,23.40
2023-05-04T15:29:21.950Z,23.40
2023-05-04T15:31:49.151Z,23.50
2023-05-04T15:34:18.479Z,23.40
2023-05-04T15:36:46.092Z,23.20
2023-05-04T15:39:13.384Z,23.30
2023-05-04T15:41:42.179Z,23.10
2023-05-04T15:44:09.437Z,23.20
2023-05-04T15:46:37.392Z,23.30
2023-05-04T15:49:06.214Z,23.20
2023-05-04T15:51:33.457Z,23.20
2023-05-04T15:54:00.952Z,23.20
2023-05-04T15:56:28.352Z,23.10
2023-05-04T15:58:55.710Z,23.00
2023-05-04T16:01:23.112Z,23.00
2023-05-04T16:03:50.468Z,22.80
2023-05-04T16:06:17.979Z,22.80
2023-05-04T16:08:45.242Z,22.80
2023-05-04T16:11:12.551Z,22.90
2023-05-04T16:13:39.743Z,22.90
2023-05-04T16:16:07.516Z,22.50
2023-05-04T16:18:34.852Z,22.30
2023-05-04T16:21:02.111Z,22.30
2023-05-04T16:23:29.413Z,22.10
2023-05-04T16:25:56.643Z,22.00
2023-05-04T16:28:23.790Z,22.10
2023-05-04T16:30:51.074Z,22.00
2023-05-04T16:33:19.648Z,21.80
2023-05-04T16:35:46.883Z,21.70
2023-05-04T16:38:14.110Z,21.70
2023-05-04T16:40:42.516Z,21.60
2023-05-04T16:43:10.464Z,21.50
2023-05-04T16:45:38.317Z,21.40
2023-05-04T16:48:06.468Z,21.30
2023-05-04T16:50:33.811Z,21.30
2023-05-04T16:53:01.073Z,21.10
2023-05-04T16:55:28.439Z,21.10
2023-05-04T16:57:56.925Z,21.00
2023-05-04T17:00:25.042Z,21.00
2023-05-04T17:02:53.049Z,20.90
2023-05-04T17:05:21.136Z,20.90
2023-05-04T17:07:48.529Z,20.80
2023-05-04T17:10:17.696Z,20.80
2023-05-04T17:12:45.085Z,20.70
2023-05-04T17:15:12.437Z,20.70
2023-05-04T17:17:40.303Z,20.70
2023-05-04T17:20:09.301Z,20.70
2023-05-04T17:22:36.983Z,20.60
2023-05-04T17:25:04.834Z,20.60
2023-05-04T17:27:32.179Z,20.50
2023-05-04T17:29:59.358Z,20.50
2023-05-04T17:32:26.676Z,20.50
2023-05-04T17:34:53.977Z,20.50
2023-05-04T17:37:21.253Z,20.40
2023-05-04T17:39:48.510Z,20.40
2023-05-04T17:42:15.974Z,20.30
2023-05-04T17:44:43.204Z,20.30
2023-05-04T17:47:10.506Z,20.20
2023-05-04T17:49:37.767Z,20.20
2023-05-04T17:52:05.021Z,20.10
2023-05-04T17:54:32.372Z,19.90
2023-05-04T17:56:59.588Z,19.90
2023-05-04T17:59:26.815Z,19.90
2023-05-04T18:01:54.080Z,19.70
2023-05-04T18:04:21.309Z,19.60
2023-05-04T18:06:50.680Z,19.40
2023-05-04T18:09:19.618Z,19.40
2023-05-04T18:11:47.423Z,19.40
2023-05-04T18:14:14.845Z,19.20
2023-05-04T18:16:42.230Z,19.00
2023-05-04T18:19:09.550Z,18.90
2023-05-04T18:21:37.600Z,18.60
2023-05-04T18:24:05.130Z,18.30
2023-05-04T18:26:32.538Z,18.20
2023-05-04T18:29:11.293Z,18.00
2023-05-04T18:31:44.879Z,17.90
2023-05-04T18:34:12.196Z,17.60
2023-05-04T18:36:39.396Z,17.50
2023-05-04T18:39:06.587Z,17.40
2023-05-04T18:41:33.776Z,17.30
2023-05-04T18:44:01.252Z,17.20
2023-05-04T18:46:28.471Z,17.10
2023-05-04T18:48:56.266Z,17.10
2023-05-04T18:51:23.453Z,17.00
2023-05-04T18:53:50.662Z,16.90
2023-05-04T18:56:18.035Z,16.80
2023-05-04T18:58:45.453Z,16.80
2023-05-04T19:01:13.473Z,16.70
2023-05-04T19:03:40.786Z,16.50
2023-05-04T19:06:07.985Z,16.50
2023-05-04T19:08:35.220Z,16.40
2023-05-04T19:11:05.182Z,16.30
2023-05-04T19:13:32.307Z,16.10
2023-05-04T19:15:59.526Z,16.10
2023-05-04T19:18:26.827Z,16.00
2023-05-04T19:20:54.683Z,15.90
2023-05-04T19:23:21.957Z,15.70
2023-05-04T19:25:49.152Z,15.70
2023-05-04T19:28:16.587Z,15.60
2023-05-04T19:30:43.806Z,15.50
2023-05-04T19:33:11.097Z,15.40
2023-05-04T19:35:38.461Z,15.40
2023-05-04T19:38:08.514Z,15.30
2023-05-04T19:40:35.710Z,15.30
2023-05-04T19:43:03.877Z,15.30
2023-05-04T19:45:31.721Z,15.20
2023-05-04T19:47:59.115Z,15.10
2023-05-04T19:50:26.559Z,14.90
2023-05-04T19:52:53.805Z,14.40
2023-05-04T19:55:21.466Z,14.40
2023-05-04T19:57:49.990Z,14.10
2023-05-04T20:00:19.537Z,13.90
2023-05-04T20:02:47.061Z,13.80
2023-05-04T20:05:14.461Z,13.80
2023-05-04T20:07:41.934Z,13.80
2023-05-04T20:10:09.546Z,13.90
2023-05-04T20:12:36.977Z,13.90
2023-05-04T20:15:06.149Z,13.90
2023-05-04T20:17:33.419Z,13.80
2023-05-04T20:20:02.427Z,13.80
2023-05-04T20:22:29.708Z,13.50
2023-05-04T20:24:57.070Z,13.50
2023-05-04T20:27:24.281Z,13.10
2023-05-04T20:29:51.552Z,13.10
2023-05-04T20:32:18.826Z,13.10
2023-05-04T20:34:46.306Z,13.10
2023-05-04T20:37:13.549Z,13.10
2023-05-04T20:39:40.678Z,13.10
2023-05-04T20:42:08.199Z,13.00
2023-05-04T20:44:35.406Z,12.90
2023-05-04T20:47:02.636Z,12.90
2023-05-04T20:49:29.923Z,12.80
2023-05-04T20:51:57.280Z,12.80
2023-05-04T20:54:24.459Z,12.80
2023-05-04T20:56:51.664Z,12.80
2023-05-04T20:59:19.208Z,12.80
